Time;durP1;ratioP1;P1;durP2;ratioP2;P2;SDS_P1;SDS_P2;PMS_P1;PMS_P2;Temp;Humidity;BMP_temperature;BMP_pressure;BME280_temperature;BME280_humidity;BME280_pressure;Samples;Min_cycle;Max_cycle;Signal;HPM_P1;HPM_P2
2021/07/24 00:01:11;;;;;;;14.60;12.50;;;20.50;99.90;;;;;;5073102;28;20199;-74
2021/07/24 00:03:38;;;;;;;13.53;12.20;;;20.70;99.90;;;;;;5072858;28;20170;-74
2021/07/24 00:06:03;;;;;;;15.63;12.53;;;20.70;99.90;;;;;;5072992;28;20547;-74
2021/07/24 00:08:29;;;;;;;14.27;12.87;;;20.70;99.90;;;;;;5072680;28;20287;-74
2021/07/24 00:10:55;;;;;;;15.27;12.20;;;20.60;99.90;;;;;;5054869;28;20177;-74
2021/07/24 00:13:20;;;;;;;14.77;11.80;;;20.50;99.90;;;;;;5072885;28;20166;-74
2021/07/24 00:15:46;;;;;;;12.90;11.60;;;20.60;99.90;;;;;;5073214;28;20199;-74
2021/07/24 00:18:12;;;;;;;15.93;13.30;;;20.50;99.90;;;;;;5054977;28;20693;-73
2021/07/24 00:20:38;;;;;;;14.73;11.77;;;20.40;99.90;;;;;;5073194;28;20165;-75
2021/07/24 00:23:07;;;;;;;14.10;12.43;;;20.40;99.90;;;;;;5072588;28;20169;-74
2021/07/24 00:25:35;;;;;;;14.27;12.80;;;20.40;99.90;;;;;;5072488;28;20200;-75
2021/07/24 00:28:00;;;;;;;13.80;12.43;;;20.40;99.90;;;;;;5054650;28;20292;-73
2021/07/24 00:30:26;;;;;;;13.33;11.93;;;20.40;99.90;;;;;;5076591;28;20684;-74
2021/07/24 00:32:52;;;;;;;13.80;12.30;;;20.30;99.90;;;;;;5076173;28;20170;-74
2021/07/24 00:35:18;;;;;;;13.37;12.17;;;20.30;99.90;;;;;;5076198;28;20173;-74
2021/07/24 00:37:43;;;;;;;13.70;12.40;;;20.30;99.90;;;;;;5058156;28;20224;-73
2021/07/24 00:40:14;;;;;;;13.23;11.80;;;20.30;99.90;;;;;;5060623;28;20207;-75
2021/07/24 00:42:42;;;;;;;13.10;11.23;;;20.30;99.90;;;;;;5076626;28;20216;-73
2021/07/24 00:45:08;;;;;;;12.87;11.27;;;20.30;99.90;;;;;;5075924;28;20672;-72
2021/07/24 00:47:39;;;;;;;14.67;12.70;;;20.30;99.90;;;;;;5075849;28;20192;-75
2021/07/24 00:50:10;;;;;;;12.33;11.13;;;20.40;99.90;;;;;;5057989;28;20226;-73
2021/07/24 00:52:39;;;;;;;18.13;11.50;;;20.50;99.90;;;;;;5076198;28;20185;-73
2021/07/24 00:55:06;;;;;;;12.70;11.40;;;20.60;99.90;;;;;;5076097;28;20158;-73
2021/07/24 00:57:31;;;;;;;12.57;11.37;;;20.50;99.90;;;;;;5076028;28;20196;-73
2021/07/24 00:59:57;;;;;;;15.87;11.80;;;20.50;99.90;;;;;;5076004;28;20521;-74
2021/07/24 01:02:22;;;;;;;13.67;12.37;;;20.50;99.90;;;;;;5075732;28;20173;-74
2021/07/24 01:04:48;;;;;;;12.50;11.30;;;20.50;99.90;;;;;;5075612;28;20284;-74
2021/07/24 01:07:14;;;;;;;13.10;11.90;;;20.40;99.90;;;;;;5075825;28;20637;-74
2021/07/24 01:09:40;;;;;;;13.83;12.37;;;20.20;99.90;;;;;;5075657;28;20581;-74
2021/07/24 01:12:06;;;;;;;13.13;11.77;;;20.20;99.90;;;;;;5057663;28;20173;-74
2021/07/24 01:14:33;;;;;;;13.80;12.47;;;20.20;99.90;;;;;;5075767;28;20195;-73
2021/07/24 01:16:59;;;;;;;16.17;12.33;;;20.20;99.90;;;;;;5075344;28;20748;-75
2021/07/24 01:19:25;;;;;;;13.80;12.00;;;20.20;99.90;;;;;;5075386;28;20235;-74
2021/07/24 01:21:51;;;;;;;12.80;11.53;;;20.10;99.90;;;;;;5075908;28;20629;-74
2021/07/24 01:24:16;;;;;;;13.43;12.03;;;20.00;99.90;;;;;;5075167;28;20178;-74
2021/07/24 01:26:46;;;;;;;13.10;11.90;;;20.10;99.90;;;;;;5075221;28;20173;-74
2021/07/24 01:29:15;;;;;;;13.63;11.63;;;20.00;99.90;;;;;;5075211;28;20161;-74
2021/07/24 01:31:42;;;;;;;12.60;11.33;;;20.00;99.90;;;;;;5057205;28;20180;-75
2021/07/24 01:34:08;;;;;;;13.40;11.77;;;19.90;99.90;;;;;;5057240;28;20195;-71
2021/07/24 01:36:34;;;;;;;12.73;11.53;;;19.90;99.90;;;;;;5057045;28;20177;-75
2021/07/24 01:39:00;;;;;;;14.87;12.47;;;20.00;99.90;;;;;;5075617;28;20169;-74
2021/07/24 01:41:26;;;;;;;12.87;11.53;;;19.90;99.90;;;;;;5074425;28;20169;-73
2021/07/24 01:43:51;;;;;;;14.80;11.43;;;19.90;99.90;;;;;;5057495;28;20185;-75
2021/07/24 01:46:17;;;;;;;17.10;11.13;;;19.90;99.90;;;;;;5074443;28;20192;-74
2021/07/24 01:48:47;;;;;;;12.60;11.47;;;19.90;99.90;;;;;;5074749;28;20189;-74
2021/07/24 01:54:01;;;;;;;12.63;11.30;;;20.00;99.90;;;;;;5075072;28;20242;-74
2021/07/24 01:56:30;;;;;;;12.53;11.33;;;20.00;99.90;;;;;;5074968;28;20522;-74
2021/07/24 01:58:56;;;;;;;14.40;12.37;;;19.90;99.90;;;;;;5074508;28;20315;-74
2021/07/24 02:01:26;;;;;;;12.17;10.97;;;19.90;99.90;;;;;;5066968;28;20606;-75
2021/07/24 02:03:58;;;;;;;12.70;11.50;;;19.90;99.90;;;;;;5067701;28;20177;-75
2021/07/24 02:06:24;;;;;;;12.00;10.80;;;19.90;99.90;;;;;;5084788;28;20196;-74
2021/07/24 02:08:51;;;;;;;13.60;10.17;;;19.90;99.90;;;;;;5092413;28;20207;-74
2021/07/24 02:11:18;;;;;;;12.13;11.03;;;19.90;99.90;;;;;;5093024;28;20629;-73
2021/07/24 02:13:46;;;;;;;15.13;11.17;;;19.90;99.90;;;;;;5094626;28;20668;-74
2021/07/24 02:16:12;;;;;;;12.50;11.23;;;19.90;99.90;;;;;;5094510;28;20180;-74
2021/07/24 02:18:39;;;;;;;12.23;11.03;;;19.80;99.90;;;;;;5093471;28;20701;-75
2021/07/24 02:21:05;;;;;;;13.23;11.87;;;19.80;99.90;;;;;;5094390;28;20187;-74
2021/07/24 02:23:31;;;;;;;13.37;11.87;;;19.80;99.90;;;;;;5094452;28;20168;-73
2021/07/24 02:25:56;;;;;;;12.57;11.37;;;19.70;99.90;;;;;;5094730;28;20192;-74
2021/07/24 02:28:22;;;;;;;13.77;11.80;;;19.80;99.90;;;;;;5076810;28;20245;-73
2021/07/24 02:30:47;;;;;;;11.97;10.77;;;19.80;99.90;;;;;;5094287;28;20687;-75
2021/07/24 02:33:13;;;;;;;13.07;11.63;;;19.70;99.90;;;;;;5077183;28;20652;-73
2021/07/24 02:35:39;;;;;;;13.40;12.00;;;19.80;99.90;;;;;;5079407;28;20710;-74
2021/07/24 02:38:06;;;;;;;13.07;11.07;;;19.80;99.90;;;;;;5074113;28;20185;-74
2021/07/24 02:40:32;;;;;;;12.33;11.23;;;19.70;99.90;;;;;;5073894;28;20255;-74
2021/07/24 02:42:58;;;;;;;13.20;10.80;;;19.80;99.90;;;;;;5074140;28;20165;-74
2021/07/24 02:45:23;;;;;;;14.00;11.70;;;19.80;99.90;;;;;;5073951;28;20200;-73
2021/07/24 02:47:50;;;;;;;12.40;11.20;;;19.80;99.90;;;;;;5073600;28;20184;-74
2021/07/24 02:50:15;;;;;;;12.13;10.83;;;19.80;99.90;;;;;;5072396;28;20261;-74
2021/07/24 02:52:41;;;;;;;12.47;11.27;;;19.90;99.90;;;;;;5072732;28;20252;-74
2021/07/24 02:55:07;;;;;;;13.43;10.93;;;19.90;99.90;;;;;;5072322;28;20173;-73
2021/07/24 02:57:33;;;;;;;13.27;11.50;;;20.00;99.90;;;;;;5072542;28;20691;-75
2021/07/24 02:59:59;;;;;;;13.73;11.13;;;19.90;99.90;;;;;;5073553;28;20166;-74
2021/07/24 03:02:24;;;;;;;12.13;10.93;;;19.90;99.90;;;;;;5073529;28;20250;-73
2021/07/24 03:04:50;;;;;;;11.43;10.37;;;19.90;99.90;;;;;;5073151;28;20231;-74
2021/07/24 03:07:16;;;;;;;14.90;11.53;;;20.00;99.90;;;;;;5071963;28;20232;-74
2021/07/24 03:09:41;;;;;;;11.20;10.10;;;19.90;99.90;;;;;;5073426;28;20546;-73
2021/07/24 03:12:07;;;;;;;11.93;10.77;;;19.80;99.90;;;;;;5073343;28;20566;-74
2021/07/24 03:14:33;;;;;;;12.97;11.03;;;19.80;99.90;;;;;;5072385;28;20169;-73
2021/07/24 03:16:59;;;;;;;11.70;10.50;;;19.90;99.90;;;;;;5073189;28;20200;-72
2021/07/24 03:19:25;;;;;;;12.97;11.37;;;19.80;99.90;;;;;;5073290;28;20690;-74
2021/07/24 03:21:51;;;;;;;10.77;9.77;;;19.90;99.90;;;;;;5073709;28;20174;-73
2021/07/24 03:24:17;;;;;;;12.30;11.00;;;19.90;99.90;;;;;;5073138;28;20553;-73
2021/07/24 03:26:42;;;;;;;12.03;10.83;;;19.80;99.90;;;;;;5073364;28;20516;-75
2021/07/24 03:29:08;;;;;;;16.00;11.17;;;19.70;99.90;;;;;;5071953;28;20172;-74
2021/07/24 03:31:34;;;;;;;12.20;11.10;;;19.60;99.90;;;;;;5073179;28;20172;-72
2021/07/24 03:34:00;;;;;;;11.47;10.40;;;19.60;99.90;;;;;;5073418;28;20166;-74
2021/07/24 03:36:26;;;;;;;13.53;11.10;;;19.60;99.90;;;;;;5073010;28;20169;-75
2021/07/24 03:38:51;;;;;;;11.70;10.53;;;19.60;99.90;;;;;;5073011;28;20642;-74
2021/07/24 03:41:17;;;;;;;14.70;11.07;;;19.50;99.90;;;;;;5073055;28;20665;-74
2021/07/24 03:43:43;;;;;;;13.90;11.63;;;19.40;99.90;;;;;;5073028;28;20173;-73
2021/07/24 03:46:15;;;;;;;13.33;12.17;;;19.30;99.90;;;;;;5072944;28;20200;-74
2021/07/24 03:48:42;;;;;;;16.07;13.17;;;19.30;99.90;;;;;;5072950;28;20688;-75
2021/07/24 03:51:12;;;;;;;12.60;11.27;;;19.30;99.90;;;;;;5072561;28;20165;-74
2021/07/24 03:53:41;;;;;;;18.30;12.43;;;19.40;99.90;;;;;;5071715;28;20523;-75
2021/07/24 03:56:16;;;;;;;13.73;11.90;;;19.50;99.90;;;;;;5073193;28;20176;-74
2021/07/24 03:58:43;;;;;;;14.40;11.83;;;19.60;99.90;;;;;;5071597;28;20188;-74
2021/07/24 04:01:09;;;;;;;14.10;11.93;;;19.60;99.90;;;;;;5068908;28;20645;-76
2021/07/24 04:03:35;;;;;;;12.40;11.20;;;19.60;99.90;;;;;;5047042;28;20235;-74
2021/07/24 04:06:02;;;;;;;15.40;11.57;;;19.50;99.90;;;;;;5054689;28;20307;-74
2021/07/24 04:08:28;;;;;;;13.70;12.30;;;19.70;99.90;;;;;;5078580;23;20700;-75
2021/07/24 04:10:54;;;;;;;21.33;11.77;;;19.70;99.90;;;;;;5055516;28;20166;-74
2021/07/24 04:13:20;;;;;;;13.67;12.10;;;19.50;99.90;;;;;;5039556;28;20615;-73
2021/07/24 04:15:46;;;;;;;14.90;11.67;;;19.70;99.90;;;;;;5038519;28;20646;-74
2021/07/24 04:18:12;;;;;;;13.43;11.60;;;19.70;99.90;;;;;;5039291;28;20270;-74
2021/07/24 04:20:39;;;;;;;15.13;11.93;;;19.60;99.90;;;;;;5057093;28;20201;-73
2021/07/24 04:23:08;;;;;;;13.87;12.10;;;19.80;99.90;;;;;;5055744;28;20272;-74
2021/07/24 04:25:34;;;;;;;14.87;11.60;;;19.90;99.90;;;;;;5056026;28;20251;-74
2021/07/24 04:28:00;;;;;;;12.53;11.27;;;19.70;99.90;;;;;;5056507;28;20268;-74
2021/07/24 04:30:25;;;;;;;12.43;11.27;;;19.60;99.90;;;;;;5056793;28;20209;-74
2021/07/24 04:32:51;;;;;;;13.17;11.93;;;19.50;99.90;;;;;;5055913;28;20176;-73
2021/07/24 04:35:17;;;;;;;13.10;11.50;;;19.50;99.90;;;;;;5057285;28;20178;-74
2021/07/24 04:37:43;;;;;;;12.33;11.13;;;19.50;99.90;;;;;;5055888;28;20208;-74
2021/07/24 04:40:09;;;;;;;13.57;11.10;;;19.40;99.90;;;;;;5055476;28;20183;-73
2021/07/24 04:42:35;;;;;;;14.63;11.83;;;19.60;99.90;;;;;;5056676;28;20231;-74
2021/07/24 04:45:01;;;;;;;15.43;11.73;;;19.80;99.90;;;;;;5056654;28;20189;-73
2021/07/24 04:47:26;;;;;;;14.70;12.13;;;19.90;99.90;;;;;;5056647;28;20226;-73
2021/07/24 04:49:53;;;;;;;12.37;11.07;;;19.80;99.90;;;;;;5056423;28;20169;-73
2021/07/24 04:52:21;;;;;;;15.53;12.10;;;19.70;99.90;;;;;;5057138;28;20634;-73
2021/07/24 04:54:48;;;;;;;12.43;11.23;;;19.50;99.90;;;;;;5055398;28;20177;-73
2021/07/24 04:57:15;;;;;;;13.67;11.87;;;19.50;99.90;;;;;;5056330;28;20174;-74
2021/07/24 04:59:46;;;;;;;13.73;11.70;;;19.50;99.90;;;;;;5056556;28;20174;-73
2021/07/24 05:02:17;;;;;;;12.40;11.20;;;19.40;99.90;;;;;;5055250;28;20181;-73
2021/07/24 05:04:47;;;;;;;13.10;11.77;;;19.10;99.90;;;;;;5056620;28;20198;-73
2021/07/24 05:07:13;;;;;;;11.93;10.70;;;19.30;99.90;;;;;;5056792;28;20229;-74
2021/07/24 05:09:40;;;;;;;16.63;11.23;;;19.50;99.90;;;;;;5076584;28;20166;-73
2021/07/24 05:12:06;;;;;;;12.77;11.57;;;19.60;99.90;;;;;;5041842;28;20186;-73
2021/07/24 05:14:32;;;;;;;13.00;11.60;;;19.70;99.90;;;;;;5058214;28;20633;-74
2021/07/24 05:17:12;;;;;;;12.70;11.50;;;19.80;99.90;;;;;;5075614;28;20173;-73
2021/07/24 05:19:45;;;;;;;13.57;12.23;;;19.70;99.90;;;;;;5058039;28;20166;-73
2021/07/24 05:22:14;;;;;;;14.17;12.77;;;19.50;99.90;;;;;;5076509;28;20169;-73
2021/07/24 05:24:43;;;;;;;15.03;13.60;;;19.30;99.90;;;;;;5076352;28;20172;-73
2021/07/24 05:27:10;;;;;;;15.53;13.70;;;19.30;99.90;;;;;;5076350;28;20196;-73
2021/07/24 05:29:36;;;;;;;16.20;14.30;;;19.30;99.90;;;;;;5070935;28;20706;-74
2021/07/24 05:32:02;;;;;;;18.93;14.07;;;19.10;99.90;;;;;;5051694;28;20178;-74
2021/07/24 05:34:27;;;;;;;17.40;13.67;;;19.10;99.90;;;;;;5055252;28;20166;-73
2021/07/24 05:36:53;;;;;;;19.63;14.10;;;19.10;99.90;;;;;;5054579;28;20664;-74
2021/07/24 05:39:19;;;;;;;16.57;14.67;;;19.10;99.90;;;;;;5055937;28;20201;-74
2021/07/24 05:41:45;;;;;;;17.43;14.07;;;19.00;99.90;;;;;;5037776;28;20173;-75
2021/07/24 05:44:13;;;;;;;18.80;13.27;;;19.00;99.90;;;;;;5053652;28;20174;-74
2021/07/24 05:46:39;;;;;;;15.43;13.07;;;19.20;99.90;;;;;;5057854;28;20696;-74
2021/07/24 05:49:06;;;;;;;15.13;12.43;;;19.30;99.90;;;;;;5054920;28;20281;-73
2021/07/24 05:51:31;;;;;;;15.97;12.53;;;19.50;99.90;;;;;;5056033;28;20169;-75
2021/07/24 05:53:57;;;;;;;15.87;12.63;;;19.70;99.90;;;;;;5054597;28;20536;-75
2021/07/24 05:56:23;;;;;;;16.80;13.60;;;19.80;99.90;;;;;;5055052;28;20166;-75
2021/07/24 05:58:48;;;;;;;18.57;14.47;;;19.90;99.90;;;;;;5055948;28;20217;-73
2021/07/24 06:01:14;;;;;;;24.83;16.20;;;19.80;99.90;;;;;;5056460;28;20178;-73
2021/07/24 06:03:40;;;;;;;17.97;15.73;;;19.80;99.90;;;;;;5070631;28;20644;-74
2021/07/24 06:06:06;;;;;;;17.73;15.27;;;19.70;99.90;;;;;;5053925;28;20192;-75
2021/07/24 06:08:33;;;;;;;19.73;14.87;;;19.70;99.90;;;;;;5043574;28;20288;-74
2021/07/24 06:11:03;;;;;;;18.27;14.70;;;19.80;99.90;;;;;;5047579;28;20182;-75
2021/07/24 06:13:29;;;;;;;21.93;15.47;;;19.80;99.90;;;;;;5043501;28;20184;-74
2021/07/24 06:15:55;;;;;;;17.30;14.70;;;19.80;99.90;;;;;;5029238;28;20193;-74
2021/07/24 06:18:21;;;;;;;18.83;14.37;;;19.80;99.90;;;;;;5043449;28;20214;-74
2021/07/24 06:20:47;;;;;;;19.03;14.60;;;19.70;99.90;;;;;;5035263;28;20525;-74
2021/07/24 06:23:15;;;;;;;17.17;14.53;;;19.70;99.90;;;;;;5032735;28;20178;-74
2021/07/24 06:25:44;;;;;;;16.77;13.27;;;19.70;99.90;;;;;;5032608;28;20194;-74
2021/07/24 06:28:10;;;;;;;14.67;12.17;;;19.70;99.90;;;;;;5041321;28;20186;-74
2021/07/24 06:30:36;;;;;;;13.27;11.97;;;19.70;99.90;;;;;;5032607;28;20177;-74
2021/07/24 06:33:02;;;;;;;14.07;12.13;;;19.70;99.90;;;;;;5029894;28;20197;-74
2021/07/24 06:35:27;;;;;;;14.10;12.57;;;19.80;99.90;;;;;;5045178;28;20591;-75
2021/07/24 06:37:53;;;;;;;16.80;13.90;;;19.90;99.90;;;;;;5033377;28;20276;-75
2021/07/24 06:40:19;;;;;;;20.10;15.33;;;19.80;99.90;;;;;;5033378;28;20182;-74
2021/07/24 06:42:45;;;;;;;17.20;13.80;;;19.60;99.90;;;;;;5041758;28;20639;-74
2021/07/24 06:45:11;;;;;;;15.20;13.30;;;19.40;99.90;;;;;;5043426;28;20190;-74
2021/07/24 06:47:37;;;;;;;25.00;15.13;;;19.40;99.90;;;;;;5041749;28;20713;-75
2021/07/24 06:50:03;;;;;;;26.77;15.10;;;19.50;99.90;;;;;;5040750;28;20170;-75
2021/07/24 06:52:29;;;;;;;20.97;15.00;;;19.60;99.90;;;;;;5032825;28;20596;-74
2021/07/24 06:54:54;;;;;;;18.47;13.87;;;19.70;99.90;;;;;;5041611;28;20253;-74
2021/07/24 06:57:20;;;;;;;21.43;14.20;;;19.60;99.90;;;;;;5043683;28;20664;-74
2021/07/24 06:59:46;;;;;;;20.00;15.10;;;19.50;99.90;;;;;;5036166;28;20177;-75
2021/07/24 07:02:11;;;;;;;19.90;15.60;;;19.50;99.90;;;;;;5053906;28;20239;-74
2021/07/24 07:04:38;;;;;;;18.83;14.60;;;19.50;99.90;;;;;;5036178;28;20711;-73
2021/07/24 07:07:06;;;;;;;15.20;13.67;;;19.40;99.90;;;;;;5054080;28;20170;-73
2021/07/24 07:09:31;;;;;;;19.00;15.37;;;19.20;99.90;;;;;;5054066;28;20200;-74
2021/07/24 07:11:57;;;;;;;19.40;15.10;;;19.10;99.90;;;;;;5035913;28;20174;-74
2021/07/24 07:14:24;;;;;;;20.20;15.30;;;18.90;99.90;;;;;;5035653;28;20208;-74
2021/07/24 07:16:50;;;;;;;20.13;16.30;;;18.80;99.90;;;;;;5053589;28;20204;-74
2021/07/24 07:19:15;;;;;;;18.83;15.73;;;18.90;99.90;;;;;;5053477;28;20177;-74
2021/07/24 07:21:41;;;;;;;19.33;15.63;;;19.00;99.90;;;;;;5035714;28;20634;-74
2021/07/24 07:24:06;;;;;;;18.93;16.53;;;19.20;99.90;;;;;;5053777;28;20200;-74
2021/07/24 07:26:35;;;;;;;21.73;16.63;;;19.30;99.90;;;;;;5053502;28;20594;-74
2021/07/24 07:29:04;;;;;;;20.70;17.10;;;19.30;99.90;;;;;;5054111;28;20205;-74
2021/07/24 07:31:31;;;;;;;21.33;17.77;;;19.40;99.90;;;;;;5053707;28;20222;-74
2021/07/24 07:33:57;;;;;;;19.43;15.87;;;19.30;99.90;;;;;;5035267;28;20281;-74
2021/07/24 07:36:23;;;;;;;19.23;17.00;;;19.30;99.90;;;;;;5053580;28;20166;-74
2021/07/24 07:38:48;;;;;;;20.20;16.37;;;19.50;99.90;;;;;;5052697;28;20238;-74
2021/07/24 07:41:15;;;;;;;17.83;15.53;;;19.50;99.90;;;;;;5069302;28;20532;-74
2021/07/24 07:43:41;;;;;;;22.80;17.17;;;19.60;99.90;;;;;;5053111;28;20173;-74
2021/07/24 07:46:06;;;;;;;20.40;17.20;;;19.70;99.90;;;;;;5052296;28;20231;-74
2021/07/24 07:48:36;;;;;;;23.47;17.97;;;19.60;99.90;;;;;;5068995;28;20192;-75
2021/07/24 07:51:03;;;;;;;24.47;19.37;;;19.60;99.90;;;;;;5052803;28;20220;-74
2021/07/24 07:53:29;;;;;;;23.87;18.47;;;19.70;99.90;;;;;;5053827;28;20177;-74
2021/07/24 07:55:55;;;;;;;27.27;19.23;;;19.70;99.90;;;;;;5049819;28;20617;-74
2021/07/24 07:58:23;;;;;;;20.67;17.43;;;19.70;99.90;;;;;;5042524;28;20206;-74
2021/07/24 08:00:49;;;;;;;20.83;16.57;;;19.60;99.90;;;;;;5044766;28;20178;-75
2021/07/24 08:03:14;;;;;;;21.40;16.40;;;19.70;99.90;;;;;;5032620;28;20173;-75
2021/07/24 08:05:40;;;;;;;19.17;15.80;;;19.70;99.90;;;;;;5053394;28;20205;-74
2021/07/24 08:08:06;;;;;;;18.50;16.07;;;19.80;99.90;;;;;;5053523;28;20288;-74
2021/07/24 08:10:34;;;;;;;19.23;16.10;;;19.80;99.90;;;;;;5054151;28;20193;-74
2021/07/24 08:13:12;;;;;;;22.03;16.13;;;19.90;99.90;;;;;;5053801;28;20681;-74
2021/07/24 08:15:37;;;;;;;20.13;15.47;;;20.00;99.90;;;;;;5037099;28;20291;-74
2021/07/24 08:18:03;;;;;;;19.87;16.70;;;20.10;99.90;;;;;;5053789;28;20225;-74
2021/07/24 08:20:29;;;;;;;22.27;17.43;;;20.20;99.90;;;;;;5054161;28;20209;-74
2021/07/24 08:22:54;;;;;;;20.23;18.03;;;20.10;99.90;;;;;;5052737;28;20186;-74
2021/07/24 08:25:20;;;;;;;22.47;18.07;;;20.10;99.90;;;;;;5053357;28;20202;-75
2021/07/24 08:27:45;;;;;;;22.00;17.30;;;20.20;99.90;;;;;;5049751;28;20190;-75
2021/07/24 08:30:12;;;;;;;23.40;15.90;;;20.40;99.90;;;;;;5041886;28;20253;-74
2021/07/24 08:32:37;;;;;;;16.90;15.10;;;20.50;99.90;;;;;;5033765;28;20167;-75
2021/07/24 08:35:03;;;;;;;21.37;14.40;;;20.50;99.90;;;;;;5039490;28;20668;-74
2021/07/24 08:37:31;;;;;;;20.43;14.77;;;20.50;99.90;;;;;;5053282;28;20561;-74
2021/07/24 08:39:56;;;;;;;17.57;14.40;;;20.60;99.90;;;;;;5052472;28;20174;-74
2021/07/24 08:42:33;;;;;;;19.37;14.07;;;20.60;99.90;;;;;;5053787;28;20174;-74
2021/07/24 08:45:03;;;;;;;16.67;14.87;;;20.70;99.90;;;;;;5052185;28;20220;-74
2021/07/24 08:47:29;;;;;;;15.73;14.10;;;20.70;99.90;;;;;;5053378;28;20194;-74
2021/07/24 08:49:59;;;;;;;21.37;14.23;;;20.70;99.90;;;;;;5053828;28;20170;-74
2021/07/24 08:52:28;;;;;;;16.70;14.03;;;20.80;99.90;;;;;;5057251;28;20166;-74
2021/07/24 08:54:54;;;;;;;18.90;14.43;;;20.80;99.90;;;;;;5057056;28;20200;-74
2021/07/24 08:57:25;;;;;;;17.40;14.20;;;20.80;99.90;;;;;;5055742;28;20177;-75
2021/07/24 08:59:52;;;;;;;19.30;15.50;;;20.70;99.90;;;;;;5057017;28;20614;-73
2021/07/24 09:02:24;;;;;;;19.60;14.73;;;20.70;99.90;;;;;;5057129;28;20182;-74
2021/07/24 09:04:51;;;;;;;19.70;15.70;;;20.70;99.90;;;;;;5055575;28;20193;-73
2021/07/24 09:07:18;;;;;;;17.17;15.37;;;20.70;99.90;;;;;;5057247;28;20181;-74
2021/07/24 09:09:44;;;;;;;18.50;15.73;;;20.70;99.90;;;;;;5059253;28;20192;-74
2021/07/24 09:12:10;;;;;;;19.70;16.43;;;20.70;99.90;;;;;;5076335;28;20169;-74
2021/07/24 09:14:36;;;;;;;18.67;15.47;;;20.70;99.90;;;;;;5075244;28;20169;-73
2021/07/24 09:17:03;;;;;;;19.60;15.63;;;20.70;99.90;;;;;;5051506;28;20176;-75
2021/07/24 09:19:31;;;;;;;18.00;15.80;;;20.80;99.90;;;;;;5037051;28;20197;-75
2021/07/24 09:21:56;;;;;;;17.67;15.33;;;20.70;99.90;;;;;;5044959;28;20535;-75
2021/07/24 09:24:26;;;;;;;19.83;16.60;;;20.80;99.90;;;;;;5034200;28;20178;-73
2021/07/24 09:26:52;;;;;;;19.57;16.63;;;20.80;99.90;;;;;;5045833;28;20204;-75
2021/07/24 09:29:20;;;;;;;17.63;15.90;;;20.80;99.90;;;;;;5044238;28;20201;-74
2021/07/24 09:31:47;;;;;;;18.23;16.37;;;20.80;99.90;;;;;;5033929;28;20177;-75
2021/07/24 09:34:15;;;;;;;18.40;16.53;;;20.80;99.90;;;;;;5045571;28;20174;-73
2021/07/24 09:36:45;;;;;;;21.30;17.03;;;20.70;99.90;;;;;;5050421;28;20602;-73
2021/07/24 09:39:16;;;;;;;23.90;18.00;;;20.70;99.90;;;;;;5053400;28;20236;-74
2021/07/24 09:41:43;;;;;;;20.80;17.77;;;20.70;99.90;;;;;;5048047;28;20188;-74
2021/07/24 09:44:09;;;;;;;20.30;16.63;;;20.80;99.90;;;;;;5042847;28;20182;-73
2021/07/24 09:46:35;;;;;;;22.23;17.93;;;20.70;99.90;;;;;;5040292;28;20201;-73
2021/07/24 09:49:14;;;;;;;24.80;17.57;;;20.70;99.90;;;;;;5035979;28;20194;-75
2021/07/24 09:51:42;;;;;;;23.43;18.20;;;20.80;99.90;;;;;;5032562;28;20186;-74
2021/07/24 09:54:27;;;;;;;19.77;17.23;;;20.80;99.90;;;;;;5054035;28;20178;-72
2021/07/24 09:56:56;;;;;;;21.07;17.47;;;20.90;99.90;;;;;;5030518;28;20189;-75
2021/07/24 09:59:29;;;;;;;20.77;17.30;;;20.90;99.90;;;;;;5045013;28;20202;-75
2021/07/24 10:02:05;;;;;;;22.90;18.10;;;20.90;99.90;;;;;;5049033;28;20662;-74
2021/07/24 10:04:37;;;;;;;20.03;17.80;;;20.90;99.90;;;;;;5043842;28;20197;-76
2021/07/24 10:07:06;;;;;;;25.43;18.73;;;20.90;99.90;;;;;;5032905;28;20189;-74
2021/07/24 10:09:35;;;;;;;22.43;17.23;;;20.90;99.90;;;;;;5082911;23;20706;-75
2021/07/24 10:12:03;;;;;;;23.20;19.50;;;21.00;99.90;;;;;;5071344;28;20227;-75
2021/07/24 10:14:29;;;;;;;23.77;18.67;;;21.00;99.90;;;;;;5066533;28;20232;-76
2021/07/24 10:16:57;;;;;;;23.83;19.33;;;21.00;99.90;;;;;;5069812;28;20219;-76
2021/07/24 10:19:24;;;;;;;26.93;20.83;;;21.00;99.90;;;;;;5057917;28;20201;-74
2021/07/24 10:21:51;;;;;;;21.97;18.57;;;21.10;99.90;;;;;;5048376;28;20318;-72
2021/07/24 10:24:17;;;;;;;21.30;18.20;;;21.00;99.90;;;;;;5045510;28;20181;-76
2021/07/24 10:27:06;;;;;;;19.97;17.27;;;21.00;99.90;;;;;;5052931;28;20198;-74
2021/07/24 10:29:52;;;;;;;17.03;15.23;;;21.00;99.90;;;;;;5052651;28;20284;-75
2021/07/24 10:32:24;;;;;;;19.00;17.10;;;20.90;99.90;;;;;;5052567;28;20189;-75
2021/07/24 10:34:51;;;;;;;17.53;15.67;;;20.90;99.90;;;;;;5041742;28;20194;-76
2021/07/24 10:37:42;;;;;;;21.20;17.57;;;20.90;99.90;;;;;;5042082;28;20189;-74
2021/07/24 10:40:17;;;;;;;21.67;17.20;;;21.00;99.90;;;;;;5048843;28;20197;-75
2021/07/24 10:43:06;;;;;;;22.67;16.87;;;21.10;99.90;;;;;;5047340;28;20219;-75
2021/07/24 10:45:37;;;;;;;20.67;16.67;;;21.10;99.90;;;;;;5048842;28;20249;-77
2021/07/24 10:48:14;;;;;;;22.27;17.60;;;21.10;99.90;;;;;;5052371;28;20634;-75
2021/07/24 10:50:57;;;;;;;17.83;16.00;;;21.20;99.90;;;;;;5052150;28;20185;-76
2021/07/24 10:53:27;;;;;;;17.13;14.90;;;21.30;99.90;;;;;;5051506;28;20178;-77
2021/07/24 10:55:54;;;;;;;19.67;15.27;;;21.40;99.90;;;;;;5049235;28;20269;-75
2021/07/24 10:58:25;;;;;;;15.77;12.67;;;21.60;99.90;;;;;;5052063;28;20668;-76
2021/07/24 11:00:52;;;;;;;12.73;11.27;;;21.70;99.90;;;;;;5052195;28;20186;-76
2021/07/24 11:03:43;;;;;;;13.87;12.27;;;21.80;99.90;;;;;;5048048;28;20535;-74
2021/07/24 11:06:29;;;;;;;18.13;12.10;;;21.80;99.90;;;;;;5050204;28;20221;-76
2021/07/24 11:08:58;;;;;;;12.93;11.63;;;21.80;99.90;;;;;;5059805;28;20677;-74
2021/07/24 11:12:09;;;;;;;12.73;10.97;;;21.90;99.90;;;;;;5071761;28;20239;-76
2021/07/24 11:14:38;;;;;;;12.73;11.47;;;21.90;99.90;;;;;;5052826;28;20181;-80
2021/07/24 11:17:07;;;;;;;13.40;12.10;;;21.90;99.90;;;;;;5074003;28;20184;-76
2021/07/24 11:19:40;;;;;;;13.37;12.07;;;21.80;99.90;;;;;;5072924;28;20197;-74
2021/07/24 11:22:14;;;;;;;15.47;12.37;;;21.80;99.90;;;;;;5072310;28;20168;-75
2021/07/24 11:24:49;;;;;;;16.37;14.00;;;21.90;99.90;;;;;;5067098;28;20210;-77
2021/07/24 11:27:15;;;;;;;14.27;12.43;;;22.00;99.90;;;;;;5057602;28;20218;-75
2021/07/24 11:29:41;;;;;;;14.03;12.20;;;21.90;99.90;;;;;;5051534;28;20201;-77
2021/07/24 11:32:08;;;;;;;13.57;12.13;;;21.90;99.90;;;;;;5071579;28;20181;-75
2021/07/24 11:34:35;;;;;;;14.13;12.67;;;21.90;99.90;;;;;;5054101;28;20183;-75
2021/07/24 11:37:02;;;;;;;14.33;12.47;;;21.80;99.90;;;;;;5071551;28;20201;-76
2021/07/24 11:39:30;;;;;;;14.57;13.07;;;21.60;99.90;;;;;;5072285;28;20193;-75
2021/07/24 11:41:56;;;;;;;15.23;13.83;;;21.60;99.90;;;;;;5071576;28;20284;-75
2021/07/24 11:44:30;;;;;;;14.77;13.37;;;21.60;99.90;;;;;;5071694;28;20679;-77
2021/07/24 11:47:00;;;;;;;15.97;13.43;;;21.60;99.90;;;;;;5072165;28;20200;-76
2021/07/24 11:49:26;;;;;;;17.07;14.73;;;21.50;99.90;;;;;;5071604;28;20193;-74
2021/07/24 11:51:53;;;;;;;16.93;14.37;;;21.60;99.90;;;;;;5071754;28;20176;-76
2021/07/24 11:54:30;;;;;;;14.87;13.37;;;21.70;99.90;;;;;;5070517;28;20230;-76
2021/07/24 11:56:55;;;;;;;17.70;12.87;;;21.80;99.90;;;;;;5067261;28;20727;-76
2021/07/24 11:59:22;;;;;;;14.10;12.00;;;21.80;99.90;;;;;;5072146;28;20213;-77
2021/07/24 12:01:47;;;;;;;12.17;10.97;;;21.80;99.90;;;;;;5072208;28;20177;-75
2021/07/24 12:04:16;;;;;;;12.73;10.97;;;21.80;99.90;;;;;;5053674;28;20573;-77
2021/07/24 12:06:58;;;;;;;13.90;11.50;;;21.80;99.90;;;;;;5054116;28;20207;-76
2021/07/24 12:09:24;;;;;;;11.47;10.30;;;21.80;99.90;;;;;;5071009;28;20205;-74
2021/07/24 12:11:55;;;;;;;12.40;10.60;;;21.90;99.90;;;;;;5070874;28;20224;-74
2021/07/24 12:14:26;;;;;;;11.17;9.33;;;22.00;99.90;;;;;;5071482;28;20178;-73
2021/07/24 12:17:04;;;;;;;11.00;10.00;;;22.00;99.90;;;;;;5071586;28;20207;-73
2021/07/24 12:19:45;;;;;;;10.23;9.30;;;21.90;99.90;;;;;;5069091;28;20204;-75
2021/07/24 12:22:13;;;;;;;9.10;8.20;;;22.00;99.90;;;;;;5071511;28;20610;-75
2021/07/24 12:24:39;;;;;;;9.00;8.17;;;22.00;99.90;;;;;;5072122;28;20181;-75
2021/07/24 12:27:07;;;;;;;9.77;8.40;;;22.00;99.90;;;;;;5075223;28;20173;-75
2021/07/24 12:29:46;;;;;;;10.27;8.90;;;22.00;99.90;;;;;;5075242;28;20205;-74
2021/07/24 12:32:12;;;;;;;8.80;8.03;;;21.90;99.90;;;;;;5074494;28;20169;-74
2021/07/24 12:34:38;;;;;;;10.43;8.10;;;21.90;99.90;;;;;;5075074;28;20180;-74